^^
Grace C. Lehan Memorial Weather Station Historical Data
Daily Summary for February 3, 2021 Units:  Both    English   Metric
Daily Weekly Monthly Yearly
  High: Low: Average:
Temperature: 71.3 °F /  21.8 °C 59.2 °F /  15.1 °C 65.1 °F /  18.4 °C
Dew Point: 66.8 °F /  19.3 °C 55 °F /  12.8 °C 61.3 °F /  16.3 °C
Humidity: 94% 79% 87%
Wind Speed: 0.7mph /  1.1km/h - 0mph /  0km/h
Wind Gust: 6mph /  9.7km/h - -
Wind- - SW
Pressure: 30.14 in /  1020.5 hPa 29.88 in /  1011.7 hPa -
Precipitation: 0.00 in /  0 mm    
 
 
Tabular Data for February 3, 2021
Time Temperature Dew Point Pressure Wind Wind Speed Wind Gust Humidity Rainfall Rate (Hourly) solar
00:04 62.3 °F /  16.8 °C 56.3 °F /  13.5 °C 30.14in /  1020.5hPa Calm     80.8% 0.00in /  0mm 0 W/m2
00:09 62.2 °F /  16.8 °C 56.3 °F /  13.5 °C 30.14in /  1020.5hPa Calm     81% 0.00in /  0mm 0 W/m2
00:14 62 °F /  16.7 °C 55.8 °F /  13.2 °C 30.14in /  1020.5hPa Calm     80% 0.00in /  0mm 0 W/m2
00:19 61.9 °F /  16.6 °C 55.9 °F /  13.3 °C 30.13in /  1020.2hPa Calm     80.7% 0.00in /  0mm 0 W/m2
00:24 61.8 °F /  16.6 °C 56 °F /  13.3 °C 30.13in /  1020.2hPa Calm     81% 0.00in /  0mm 0 W/m2
00:29 61.7 °F /  16.5 °C 55.9 °F /  13.3 °C 30.13in /  1020.2hPa Calm     81% 0.00in /  0mm 0 W/m2
00:34 61.7 °F /  16.5 °C 55.8 °F /  13.2 °C 30.13in /  1020.2hPa Calm     81% 0.00in /  0mm 0 W/m2
00:39 61.6 °F /  16.4 °C 55.7 °F /  13.2 °C 30.13in /  1020.2hPa Calm     81% 0.00in /  0mm 0 W/m2
00:44 61.5 °F /  16.4 °C 55.6 °F /  13.1 °C 30.13in /  1020.2hPa Calm     81% 0.00in /  0mm 0 W/m2
00:49 61.4 °F /  16.3 °C 55.5 °F /  13.1 °C 30.13in /  1020.2hPa Calm     81% 0.00in /  0mm 0 W/m2
00:54 61.4 °F /  16.3 °C 55.5 °F /  13.1 °C 30.13in /  1020.2hPa Calm     81% 0.00in /  0mm 0 W/m2
00:59 61.3 °F /  16.3 °C 55.4 °F /  13 °C 30.13in /  1020.2hPa Calm     81% 0.00in /  0mm 0 W/m2
01:04 61.1 °F /  16.2 °C 55.3 °F /  12.9 °C 30.12in /  1019.9hPa Calm     81% 0.00in /  0mm 0 W/m2
01:09 61 °F /  16.1 °C 55.2 °F /  12.9 °C 30.12in /  1019.9hPa Calm     81.1% 0.00in /  0mm 0 W/m2
01:14 61 °F /  16.1 °C 55.5 °F /  13.1 °C 30.11in /  1019.5hPa Calm     82% 0.00in /  0mm 0 W/m2
01:19 60.9 °F /  16.1 °C 55.4 °F /  13 °C 30.11in /  1019.5hPa Calm     82% 0.00in /  0mm 0 W/m2
01:24 60.8 °F /  16 °C 55.3 °F /  12.9 °C 30.11in /  1019.5hPa Calm     82% 0.00in /  0mm 0 W/m2
01:29 60.8 °F /  16 °C 55.2 °F /  12.9 °C 30.11in /  1019.5hPa Calm     82% 0.00in /  0mm 0 W/m2
01:34 60.7 °F /  15.9 °C 55.2 °F /  12.9 °C 30.12in /  1019.9hPa Calm     82% 0.00in /  0mm 0 W/m2
01:39 60.6 °F /  15.9 °C 55.4 °F /  13 °C 30.12in /  1019.9hPa Calm     82.9% 0.00in /  0mm 0 W/m2
01:44 60.5 °F /  15.8 °C 55.4 °F /  13 °C 30.11in /  1019.5hPa Calm     83% 0.00in /  0mm 0 W/m2
01:49 60.5 °F /  15.8 °C 55.3 °F /  12.9 °C 30.11in /  1019.5hPa Calm     83% 0.00in /  0mm 0 W/m2
01:54 60.4 °F /  15.8 °C 55.2 °F /  12.9 °C 30.11in /  1019.5hPa Calm     83% 0.00in /  0mm 0 W/m2
01:59 60.3 °F /  15.7 °C 55.1 °F /  12.8 °C 30.11in /  1019.5hPa Calm     83% 0.00in /  0mm 0 W/m2
02:04 60.3 °F /  15.7 °C 55.1 °F /  12.8 °C 30.11in /  1019.5hPa Calm     83% 0.00in /  0mm 0 W/m2
02:09 60.2 °F /  15.7 °C 55.3 °F /  12.9 °C 30.11in /  1019.5hPa Calm     83.8% 0.00in /  0mm 0 W/m2
02:14 60.1 °F /  15.6 °C 55.3 °F /  12.9 °C 30.11in /  1019.5hPa Calm     84% 0.00in /  0mm 0 W/m2
02:19 60 °F /  15.6 °C 55.2 °F /  12.9 °C 30.11in /  1019.5hPa Calm     84% 0.00in /  0mm 0 W/m2
02:24 59.9 °F /  15.5 °C 55 °F /  12.8 °C 30.11in /  1019.5hPa Calm     84% 0.00in /  0mm 0 W/m2
02:29 59.7 °F /  15.4 °C 55 °F /  12.8 °C 30.10in /  1019.2hPa Calm     84.5% 0.00in /  0mm 0 W/m2
02:34 59.5 °F /  15.3 °C 55 °F /  12.8 °C 30.11in /  1019.5hPa Calm     85% 0.00in /  0mm 0 W/m2
02:39 59.4 °F /  15.2 °C 55.2 °F /  12.9 °C 30.10in /  1019.2hPa Calm     85.8% 0.00in /  0mm 0 W/m2
02:44 59.3 °F /  15.2 °C 55.2 °F /  12.9 °C 30.10in /  1019.2hPa Calm     86% 0.00in /  0mm 0 W/m2
02:49 59.3 °F /  15.2 °C 55.1 °F /  12.8 °C 30.10in /  1019.2hPa Calm     86% 0.00in /  0mm 0 W/m2
02:54 59.3 °F /  15.2 °C 55.3 °F /  12.9 °C 30.10in /  1019.2hPa Calm     86.4% 0.00in /  0mm 0 W/m2
02:59 59.3 °F /  15.2 °C 55.4 °F /  13 °C 30.10in /  1019.2hPa Calm     87% 0.00in /  0mm 0 W/m2
03:04 59.3 °F /  15.2 °C 55.4 °F /  13 °C 30.10in /  1019.2hPa Calm     87% 0.00in /  0mm 0 W/m2
03:09 59.3 °F /  15.2 °C 55.4 °F /  13 °C 30.10in /  1019.2hPa Calm     87% 0.00in /  0mm 0 W/m2
03:14 59.3 °F /  15.2 °C 55.4 °F /  13 °C 30.10in /  1019.2hPa Calm     87% 0.00in /  0mm 0 W/m2
03:19 59.3 °F /  15.2 °C 55.4 °F /  13 °C 30.09in /  1018.8hPa Calm     87% 0.00in /  0mm 0 W/m2
03:24 59.3 °F /  15.2 °C 55.4 °F /  13 °C 30.09in /  1018.8hPa Calm     87% 0.00in /  0mm 0 W/m2
03:29 59.2 °F /  15.1 °C 55.4 °F /  13 °C 30.09in /  1018.8hPa Calm     87% 0.00in /  0mm 0 W/m2
03:34 59.2 °F /  15.1 °C 55.4 °F /  13 °C 30.09in /  1018.8hPa Calm     87.2% 0.00in /  0mm 0 W/m2
03:39 59.2 °F /  15.1 °C 55.7 °F /  13.2 °C 30.09in /  1018.8hPa Calm     88% 0.00in /  0mm 0 W/m2
03:44 59.3 °F /  15.2 °C 55.8 °F /  13.2 °C 30.09in /  1018.8hPa Calm     88% 0.00in /  0mm 0 W/m2
03:49 59.3 °F /  15.2 °C 55.8 °F /  13.2 °C 30.09in /  1018.8hPa Calm     88% 0.00in /  0mm 0 W/m2
03:54 59.3 °F /  15.2 °C 55.8 °F /  13.2 °C 30.09in /  1018.8hPa Calm     88% 0.00in /  0mm 0 W/m2
03:59 59.4 °F /  15.2 °C 55.8 °F /  13.2 °C 30.09in /  1018.8hPa Calm     88% 0.00in /  0mm 0 W/m2
04:09 59.5 °F /  15.3 °C 56 °F /  13.3 °C 30.10in /  1019.2hPa Calm     88% 0.00in /  0mm 0 W/m2
04:14 59.5 °F /  15.3 °C 56 °F /  13.3 °C 30.10in /  1019.2hPa Calm     88% 0.00in /  0mm 0 W/m2
04:19 59.6 °F /  15.3 °C 56.1 °F /  13.4 °C 30.10in /  1019.2hPa Calm     88% 0.00in /  0mm 0 W/m2
04:24 59.6 °F /  15.3 °C 56.1 °F /  13.4 °C 30.09in /  1018.8hPa Calm     88% 0.00in /  0mm 0 W/m2
04:29 59.7 °F /  15.4 °C 56.2 °F /  13.4 °C 30.09in /  1018.8hPa Calm     88% 0.00in /  0mm 0 W/m2
04:34 59.7 °F /  15.4 °C 56.2 °F /  13.4 °C 30.09in /  1018.8hPa Calm     88% 0.00in /  0mm 0 W/m2
04:39 59.8 °F /  15.4 °C 56.3 °F /  13.5 °C 30.10in /  1019.2hPa Calm     88.2% 0.00in /  0mm 0 W/m2
04:44 59.8 °F /  15.4 °C 56.6 °F /  13.7 °C 30.10in /  1019.2hPa Calm     89% 0.00in /  0mm 0 W/m2
04:49 59.9 °F /  15.5 °C 56.7 °F /  13.7 °C 30.10in /  1019.2hPa Calm     89% 0.00in /  0mm 0 W/m2
04:54 59.9 °F /  15.5 °C 56.7 °F /  13.7 °C 30.09in /  1018.8hPa Calm     89% 0.00in /  0mm 0 W/m2
04:59 59.9 °F /  15.5 °C 56.7 °F /  13.7 °C 30.09in /  1018.8hPa Calm     89% 0.00in /  0mm 0 W/m2
05:04 59.9 °F /  15.5 °C 56.7 °F /  13.7 °C 30.10in /  1019.2hPa Calm     89% 0.00in /  0mm 0 W/m2
05:09 60 °F /  15.6 °C 56.7 °F /  13.7 °C 30.10in /  1019.2hPa Calm     89% 0.00in /  0mm 0 W/m2
05:14 60 °F /  15.6 °C 56.8 °F /  13.8 °C 30.09in /  1018.8hPa Calm     89% 0.00in /  0mm 0 W/m2
05:19 60 °F /  15.6 °C 56.8 °F /  13.8 °C 30.10in /  1019.2hPa Calm     89% 0.00in /  0mm 0 W/m2
05:24 60 °F /  15.6 °C 56.8 °F /  13.8 °C 30.09in /  1018.8hPa Calm     89% 0.00in /  0mm 0 W/m2
05:29 60.1 °F /  15.6 °C 56.8 °F /  13.8 °C 30.09in /  1018.8hPa Calm     89% 0.00in /  0mm 5 W/m2
05:34 60.1 °F /  15.6 °C 56.8 °F /  13.8 °C 30.09in /  1018.8hPa Calm     89% 0.00in /  0mm 11 W/m2
05:39 60.2 °F /  15.7 °C 56.9 °F /  13.8 °C 30.08in /  1018.5hPa Calm     89% 0.00in /  0mm 12 W/m2
05:44 60.2 °F /  15.7 °C 56.9 °F /  13.8 °C 30.08in /  1018.5hPa Calm     89% 0.00in /  0mm 12 W/m2
05:49 60.2 °F /  15.7 °C 57 °F /  13.9 °C 30.08in /  1018.5hPa Calm     89% 0.00in /  0mm 14 W/m2
05:54 60.2 °F /  15.7 °C 57.1 °F /  13.9 °C 30.08in /  1018.5hPa Calm     89.5% 0.00in /  0mm 21 W/m2
05:59 60.2 °F /  15.7 °C 57.3 °F /  14.1 °C 30.07in /  1018.2hPa Calm     90% 0.00in /  0mm 28 W/m2
06:04 60.2 °F /  15.7 °C 57.3 °F /  14.1 °C 30.08in /  1018.5hPa Calm     90% 0.00in /  0mm 35 W/m2
06:09 60.2 °F /  15.7 °C 57.3 °F /  14.1 °C 30.08in /  1018.5hPa Calm     90% 0.00in /  0mm 37 W/m2
06:14 60.2 °F /  15.7 °C 57.3 °F /  14.1 °C 30.08in /  1018.5hPa Calm     90% 0.00in /  0mm 37 W/m2
06:19 60.2 °F /  15.7 °C 57.3 °F /  14.1 °C 30.08in /  1018.5hPa Calm     90% 0.00in /  0mm 35 W/m2
06:24 60.2 °F /  15.7 °C 57.3 °F /  14.1 °C 30.08in /  1018.5hPa Calm     90% 0.00in /  0mm 35 W/m2
06:29 60.2 °F /  15.7 °C 57.3 °F /  14.1 °C 30.08in /  1018.5hPa Calm     90% 0.00in /  0mm 42 W/m2
06:34 60.2 °F /  15.7 °C 57.3 °F /  14.1 °C 30.08in /  1018.5hPa Calm     90% 0.00in /  0mm 53 W/m2
06:39 60.2 °F /  15.7 °C 57.6 °F /  14.2 °C 30.08in /  1018.5hPa Calm     90.8% 0.00in /  0mm 69 W/m2
06:44 60.3 °F /  15.7 °C 57.7 °F /  14.3 °C 30.08in /  1018.5hPa Calm     91% 0.00in /  0mm 70 W/m2
06:49 60.3 °F /  15.7 °C 57.7 °F /  14.3 °C 30.08in /  1018.5hPa Calm     91% 0.00in /  0mm 69 W/m2
06:54 60.4 °F /  15.8 °C 57.7 °F /  14.3 °C 30.08in /  1018.5hPa Calm     91% 0.00in /  0mm 72 W/m2
06:59 60.4 °F /  15.8 °C 57.8 °F /  14.3 °C 30.08in /  1018.5hPa Calm     91% 0.00in /  0mm 79 W/m2
07:04 60.5 °F /  15.8 °C 57.9 °F /  14.4 °C 30.08in /  1018.5hPa Calm     91% 0.00in /  0mm 83 W/m2
07:09 60.6 °F /  15.9 °C 58 °F /  14.4 °C 30.08in /  1018.5hPa Calm     91% 0.00in /  0mm 83 W/m2
07:14 60.7 °F /  15.9 °C 58.1 °F /  14.5 °C 30.08in /  1018.5hPa Calm     91% 0.00in /  0mm 81 W/m2
07:19 60.8 °F /  16 °C 58.1 °F /  14.5 °C 30.08in /  1018.5hPa Calm     90.7% 0.00in /  0mm 83 W/m2
07:24 60.8 °F /  16 °C 57.9 °F /  14.4 °C 30.08in /  1018.5hPa Calm     90% 0.00in /  0mm 90 W/m2
07:29 60.9 °F /  16.1 °C 57.9 °F /  14.4 °C 30.08in /  1018.5hPa Calm     90% 0.00in /  0mm 93 W/m2
07:34 61 °F /  16.1 °C 58 °F /  14.4 °C 30.08in /  1018.5hPa Calm     90% 0.00in /  0mm 93 W/m2
07:39 61 °F /  16.1 °C 58.1 °F /  14.5 °C 30.07in /  1018.2hPa Calm     90% 0.00in /  0mm 84 W/m2
07:44 61 °F /  16.1 °C 57.8 °F /  14.3 °C 30.07in /  1018.2hPa Calm     89.3% 0.00in /  0mm 81 W/m2
07:49 61 °F /  16.1 °C 57.7 °F /  14.3 °C 30.07in /  1018.2hPa Calm     89% 0.00in /  0mm 84 W/m2
07:54 61 °F /  16.1 °C 57.7 °F /  14.3 °C 30.07in /  1018.2hPa Calm     89% 0.00in /  0mm 100 W/m2
07:59 61 °F /  16.1 °C 57.7 °F /  14.3 °C 30.07in /  1018.2hPa Calm     89% 0.00in /  0mm 118 W/m2
08:09 61.2 °F /  16.2 °C 58.3 °F /  14.6 °C 30.07in /  1018.2hPa Calm     90% 0.00in /  0mm 100 W/m2
08:14 61.3 °F /  16.3 °C 58.2 °F /  14.6 °C 30.07in /  1018.2hPa Calm     89.7% 0.00in /  0mm 125 W/m2
08:19 61.4 °F /  16.3 °C 58.1 °F /  14.5 °C 30.07in /  1018.2hPa Calm     89% 0.00in /  0mm 128 W/m2
08:24 61.5 °F /  16.4 °C 58.2 °F /  14.6 °C 30.07in /  1018.2hPa Calm     89% 0.00in /  0mm 127 W/m2
08:29 61.6 °F /  16.4 °C 58.3 °F /  14.6 °C 30.08in /  1018.5hPa Calm   1mph /  1.6km/h 89% 0.00in /  0mm 171 W/m2
08:34 61.7 °F /  16.5 °C 58.5 °F /  14.7 °C 30.07in /  1018.2hPa Calm   1mph /  1.6km/h 89% 0.00in /  0mm 199 W/m2
08:39 61.9 °F /  16.6 °C 58.6 °F /  14.8 °C 30.07in /  1018.2hPa Calm     89% 0.00in /  0mm 199 W/m2
08:44 62.1 °F /  16.7 °C 58.7 °F /  14.8 °C 30.07in /  1018.2hPa Calm     88.5% 0.00in /  0mm 183 W/m2
08:49 62.3 °F /  16.8 °C 58.7 °F /  14.8 °C 30.07in /  1018.2hPa Calm     87.8% 0.00in /  0mm 218 W/m2
08:54 62.5 °F /  16.9 °C 58.5 °F /  14.7 °C 30.07in /  1018.2hPa Calm     87% 0.00in /  0mm 237 W/m2
08:59 62.6 °F /  17 °C 58.8 °F /  14.9 °C 30.06in /  1017.8hPa Calm     87.3% 0.00in /  0mm 185 W/m2
09:04 62.8 °F /  17.1 °C 58.9 °F /  14.9 °C 30.06in /  1017.8hPa Calm     87% 0.00in /  0mm 178 W/m2
09:09 63 °F /  17.2 °C 59 °F /  15 °C 30.07in /  1018.2hPa Calm     86.6% 0.00in /  0mm 185 W/m2
09:14 63.1 °F /  17.3 °C 59 °F /  15 °C 30.07in /  1018.2hPa Calm     86.3% 0.00in /  0mm 221 W/m2
09:19 63.2 °F /  17.3 °C 59 °F /  15 °C 30.06in /  1017.8hPa Calm     86% 0.00in /  0mm 221 W/m2
09:24 63.4 °F /  17.4 °C 59.1 °F /  15.1 °C 30.06in /  1017.8hPa Calm     86% 0.00in /  0mm 204 W/m2
09:29 63.5 °F /  17.5 °C 59.1 °F /  15.1 °C 30.06in /  1017.8hPa Calm     85.7% 0.00in /  0mm 146 W/m2
09:34 63.5 °F /  17.5 °C 58.9 °F /  14.9 °C 30.06in /  1017.8hPa Calm     85% 0.00in /  0mm 125 W/m2
09:39 63.5 °F /  17.5 °C 58.7 °F /  14.8 °C 30.05in /  1017.5hPa Calm     84.2% 0.00in /  0mm 142 W/m2
09:44 63.5 °F /  17.5 °C 58.6 °F /  14.8 °C 30.05in /  1017.5hPa Calm     84% 0.00in /  0mm 251 W/m2
09:49 63.6 °F /  17.6 °C 58.8 °F /  14.9 °C 30.05in /  1017.5hPa Calm     84.5% 0.00in /  0mm 260 W/m2
09:54 63.9 °F /  17.7 °C 59.4 °F /  15.2 °C 30.05in /  1017.5hPa Calm     85.2% 0.00in /  0mm 236 W/m2
09:59 64.1 °F /  17.8 °C 59.1 °F /  15.1 °C 30.05in /  1017.5hPa Calm     83.6% 0.00in /  0mm 311 W/m2
10:04 64.3 °F /  17.9 °C 59.2 °F /  15.1 °C 30.05in /  1017.5hPa Calm     83.4% 0.00in /  0mm 271 W/m2
10:09 64.5 °F /  18.1 °C 58.9 °F /  14.9 °C 30.05in /  1017.5hPa Calm     82.1% 0.00in /  0mm 221 W/m2
10:14 64.6 °F /  18.1 °C 58.9 °F /  14.9 °C 30.05in /  1017.5hPa Calm     81.6% 0.00in /  0mm 227 W/m2
10:19 64.8 °F /  18.2 °C 59 °F /  15 °C 30.04in /  1017.2hPa Calm     81.6% 0.00in /  0mm 220 W/m2
10:24 64.9 °F /  18.3 °C 58.8 °F /  14.9 °C 30.04in /  1017.2hPa Calm     80.7% 0.00in /  0mm 308 W/m2
10:29 65 °F /  18.3 °C 59 °F /  15 °C 30.04in /  1017.2hPa Calm     81% 0.00in /  0mm 432 W/m2
10:34 65.3 °F /  18.5 °C 59 °F /  15 °C 30.04in /  1017.2hPa Calm     80.2% 0.00in /  0mm 301 W/m2
10:39 65.6 °F /  18.7 °C 59.5 °F /  15.3 °C 30.04in /  1017.2hPa Calm     80.7% 0.00in /  0mm 269 W/m2
10:44 65.7 °F /  18.7 °C 59.1 °F /  15.1 °C 30.04in /  1017.2hPa Calm     79% 0.00in /  0mm 257 W/m2
10:49 65.9 °F /  18.8 °C 59.4 °F /  15.2 °C 30.04in /  1017.2hPa Calm     79.6% 0.00in /  0mm 234 W/m2
10:54 66 °F /  18.9 °C 59.7 °F /  15.4 °C 30.04in /  1017.2hPa Calm   1mph /  1.6km/h 80% 0.00in /  0mm 387 W/m2
10:59 66.1 °F /  18.9 °C 59.9 °F /  15.5 °C 30.04in /  1017.2hPa Calm   1mph /  1.6km/h 80.2% 0.00in /  0mm 390 W/m2
11:04 66.3 °F /  19.1 °C 60.1 °F /  15.6 °C 30.03in /  1016.8hPa Calm   1mph /  1.6km/h 80.2% 0.00in /  0mm 397 W/m2
11:09 66.5 °F /  19.2 °C 60.4 °F /  15.8 °C 30.03in /  1016.8hPa SW 0.1mph /  0.2km/h 2mph /  3.2km/h 80.5% 0.00in /  0mm 383 W/m2
11:14 66.7 °F /  19.3 °C 60.3 °F /  15.7 °C 30.04in /  1017.2hPa Calm   2mph /  3.2km/h 80% 0.00in /  0mm 434 W/m2
11:19 66.9 °F /  19.4 °C 60.3 °F /  15.7 °C 30.04in /  1017.2hPa SW 0.1mph /  0.2km/h 2mph /  3.2km/h 79.5% 0.00in /  0mm 345 W/m2
11:24 67 °F /  19.4 °C 60.7 °F /  15.9 °C 30.03in /  1016.8hPa Calm   2mph /  3.2km/h 80.2% 0.00in /  0mm 345 W/m2
11:29 67.2 °F /  19.6 °C 61.2 °F /  16.2 °C 30.03in /  1016.8hPa Calm   2mph /  3.2km/h 80.9% 0.00in /  0mm 255 W/m2
11:34 67.3 °F /  19.6 °C 60.9 °F /  16.1 °C 30.03in /  1016.8hPa Calm   2mph /  3.2km/h 80% 0.00in /  0mm 258 W/m2
11:39 67.3 °F /  19.6 °C 61.1 °F /  16.2 °C 30.03in /  1016.8hPa Calm     80.5% 0.00in /  0mm 301 W/m2
11:44 67.5 °F /  19.7 °C 61.3 °F /  16.3 °C 30.03in /  1016.8hPa SW 0.7mph /  1.1km/h 6mph /  9.7km/h 80.5% 0.00in /  0mm 359 W/m2
11:49 67.8 °F /  19.9 °C 61.6 °F /  16.4 °C 30.03in /  1016.8hPa SW 0.2mph /  0.3km/h 6mph /  9.7km/h 80.5% 0.00in /  0mm 413 W/m2
11:54 67.9 °F /  19.9 °C 61.8 °F /  16.6 °C 30.03in /  1016.8hPa Calm   6mph /  9.7km/h 81% 0.00in /  0mm 415 W/m2
11:59 68 °F /  20 °C 62.3 °F /  16.8 °C 30.02in /  1016.5hPa Calm   6mph /  9.7km/h 82.1% 0.00in /  0mm 374 W/m2
12:04 67.9 °F /  19.9 °C 62.6 °F /  17 °C 30.01in /  1016.1hPa Calm     83% 0.00in /  0mm 311 W/m2
12:09 67.9 °F /  19.9 °C 62.8 °F /  17.1 °C 30.01in /  1016.1hPa Calm     83.7% 0.00in /  0mm 311 W/m2
12:14 67.9 °F /  19.9 °C 63.4 °F /  17.4 °C 30.02in /  1016.5hPa Calm     85.5% 0.00in /  0mm 362 W/m2
12:19 68 °F /  20 °C 63.9 °F /  17.7 °C 30.01in /  1016.1hPa Calm     86.6% 0.00in /  0mm 294 W/m2
12:24 67.8 °F /  19.9 °C 63.5 °F /  17.5 °C 30.01in /  1016.1hPa Calm     86% 0.00in /  0mm 223 W/m2
12:29 67.7 °F /  19.8 °C 63.6 °F /  17.6 °C 30.01in /  1016.1hPa Calm     86.6% 0.00in /  0mm 236 W/m2
12:34 67.7 °F /  19.8 °C 63.6 °F /  17.6 °C 30.01in /  1016.1hPa Calm     86.7% 0.00in /  0mm 229 W/m2
12:39 67.7 °F /  19.8 °C 63.8 °F /  17.7 °C 30.00in /  1015.8hPa Calm     87.4% 0.00in /  0mm 285 W/m2
12:44 67.8 °F /  19.9 °C 64.1 °F /  17.8 °C 30.00in /  1015.8hPa Calm   1mph /  1.6km/h 88% 0.00in /  0mm 311 W/m2
12:49 67.7 °F /  19.8 °C 63.9 °F /  17.7 °C 30.00in /  1015.8hPa Calm   3mph /  4.8km/h 87.3% 0.00in /  0mm 311 W/m2
12:54 67.7 °F /  19.8 °C 64 °F /  17.8 °C 30.00in /  1015.8hPa Calm   3mph /  4.8km/h 88% 0.00in /  0mm 250 W/m2
12:59 67.8 °F /  19.9 °C 64.2 °F /  17.9 °C 30.00in /  1015.8hPa Calm   3mph /  4.8km/h 88.1% 0.00in /  0mm 220 W/m2
13:04 67.9 °F /  19.9 °C 64.2 °F /  17.9 °C 30.00in /  1015.8hPa Calm   3mph /  4.8km/h 88% 0.00in /  0mm 211 W/m2
13:09 67.9 °F /  19.9 °C 64.2 °F /  17.9 °C 30.00in /  1015.8hPa Calm   1mph /  1.6km/h 88.1% 0.00in /  0mm 250 W/m2
13:13 67.9 °F /  19.9 °C 64.5 °F /  18.1 °C 29.99in /  1015.5hPa Calm   1mph /  1.6km/h 89% 0.00in /  0mm 195 W/m2
13:19 67.9 °F /  19.9 °C 64.6 °F /  18.1 °C 29.99in /  1015.5hPa Calm   1mph /  1.6km/h 89.2% 0.00in /  0mm 178 W/m2
13:24 67.9 °F /  19.9 °C 64.9 °F /  18.3 °C 29.99in /  1015.5hPa Calm   1mph /  1.6km/h 90% 0.00in /  0mm 148 W/m2
13:29 67.9 °F /  19.9 °C 64.9 °F /  18.3 °C 29.99in /  1015.5hPa Calm   1mph /  1.6km/h 90% 0.00in /  0mm 156 W/m2
13:34 67.9 °F /  19.9 °C 64.9 °F /  18.3 °C 29.99in /  1015.5hPa Calm   1mph /  1.6km/h 90% 0.00in /  0mm 181 W/m2
13:39 67.9 °F /  19.9 °C 64.9 °F /  18.3 °C 29.99in /  1015.5hPa Calm     90% 0.00in /  0mm 178 W/m2
13:44 68 °F /  20 °C 65.2 °F /  18.4 °C 29.99in /  1015.5hPa Calm     90.7% 0.00in /  0mm 163 W/m2
13:49 68 °F /  20 °C 65.3 °F /  18.5 °C 29.99in /  1015.5hPa Calm   1mph /  1.6km/h 91% 0.00in /  0mm 144 W/m2
13:54 67.9 °F /  19.9 °C 65.2 °F /  18.4 °C 29.99in /  1015.5hPa Calm   1mph /  1.6km/h 91% 0.00in /  0mm 146 W/m2
13:59 68 °F /  20 °C 65.2 °F /  18.4 °C 29.98in /  1015.1hPa Calm   1mph /  1.6km/h 91% 0.00in /  0mm 167 W/m2
14:04 68 °F /  20 °C 65.3 °F /  18.5 °C 29.98in /  1015.1hPa Calm   1mph /  1.6km/h 91% 0.00in /  0mm 199 W/m2
14:09 68 °F /  20 °C 65.3 °F /  18.5 °C 29.98in /  1015.1hPa Calm     91% 0.00in /  0mm 200 W/m2
14:14 68 °F /  20 °C 65.3 °F /  18.5 °C 29.98in /  1015.1hPa Calm     91% 0.00in /  0mm 322 W/m2
14:19 68.1 °F /  20.1 °C 65.5 °F /  18.6 °C 29.97in /  1014.8hPa SSW 0.1mph /  0.2km/h 2mph /  3.2km/h 91.4% 0.00in /  0mm 274 W/m2
14:24 68.3 °F /  20.2 °C 65.6 °F /  18.7 °C 29.97in /  1014.8hPa Calm   2mph /  3.2km/h 91.1% 0.00in /  0mm 255 W/m2
14:29 68.4 °F /  20.2 °C 65.7 °F /  18.7 °C 29.97in /  1014.8hPa Calm   2mph /  3.2km/h 91% 0.00in /  0mm 248 W/m2
14:34 68.5 °F /  20.3 °C 65.7 °F /  18.7 °C 29.97in /  1014.8hPa Calm   2mph /  3.2km/h 90.5% 0.00in /  0mm 262 W/m2
14:39 68.8 °F /  20.4 °C 65.7 °F /  18.7 °C 29.97in /  1014.8hPa SSW 0.1mph /  0.2km/h 4mph /  6.4km/h 90% 0.00in /  0mm 327 W/m2
14:44 69.1 °F /  20.6 °C 66.2 °F /  19 °C 29.96in /  1014.4hPa Calm   4mph /  6.4km/h 90.3% 0.00in /  0mm 380 W/m2
14:49 69.4 °F /  20.8 °C 66.3 °F /  19.1 °C 29.96in /  1014.4hPa Calm   4mph /  6.4km/h 89.8% 0.00in /  0mm 355 W/m2
14:54 69.7 °F /  20.9 °C 66.3 °F /  19.1 °C 29.96in /  1014.4hPa Calm   4mph /  6.4km/h 89% 0.00in /  0mm 367 W/m2
14:59 70 °F /  21.1 °C 66.7 °F /  19.3 °C 29.96in /  1014.4hPa SSW 0.1mph /  0.2km/h 4mph /  6.4km/h 89% 0.00in /  0mm 385 W/m2
15:04 70.5 °F /  21.4 °C 66.8 °F /  19.3 °C 29.96in /  1014.4hPa SSW 0.4mph /  0.6km/h 5mph /  8km/h 88.1% 0.00in /  0mm 352 W/m2
15:09 70.7 °F /  21.5 °C 66.6 °F /  19.2 °C 29.96in /  1014.4hPa SW 0.2mph /  0.3km/h 5mph /  8km/h 86.9% 0.00in /  0mm 236 W/m2
15:14 70.8 °F /  21.6 °C 66.3 °F /  19.1 °C 29.96in /  1014.4hPa Calm   5mph /  8km/h 85.8% 0.00in /  0mm 390 W/m2
15:19 70.8 °F /  21.6 °C 66.3 °F /  19.1 °C 29.95in /  1014.1hPa Calm   5mph /  8km/h 85.6% 0.00in /  0mm 454 W/m2
15:24 70.9 °F /  21.6 °C 66.4 °F /  19.1 °C 29.94in /  1013.8hPa SW 0.2mph /  0.3km/h 5mph /  8km/h 85.6% 0.00in /  0mm 299 W/m2
15:29 71.1 °F /  21.7 °C 66.3 °F /  19.1 °C 29.94in /  1013.8hPa SW 0.5mph /  0.8km/h 5mph /  8km/h 85% 0.00in /  0mm 236 W/m2
15:34 71.2 °F /  21.8 °C 66.4 °F /  19.1 °C 29.95in /  1014.1hPa Calm   5mph /  8km/h 84.8% 0.00in /  0mm 264 W/m2
15:39 71.1 °F /  21.7 °C 66.2 °F /  19 °C 29.95in /  1014.1hPa SW 0.1mph /  0.2km/h 4mph /  6.4km/h 84.3% 0.00in /  0mm 264 W/m2
15:44 71.2 °F /  21.8 °C 66.5 °F /  19.2 °C 29.95in /  1014.1hPa Calm   4mph /  6.4km/h 85% 0.00in /  0mm 239 W/m2
15:49 71.3 °F /  21.8 °C 66.6 °F /  19.2 °C 29.95in /  1014.1hPa SSW 0.2mph /  0.3km/h 4mph /  6.4km/h 85% 0.00in /  0mm 181 W/m2
15:54 71.3 °F /  21.8 °C 66.3 °F /  19.1 °C 29.95in /  1014.1hPa SW 0.5mph /  0.8km/h 6mph /  9.7km/h 84.2% 0.00in /  0mm 144 W/m2
15:59 71.2 °F /  21.8 °C 66.1 °F /  18.9 °C 29.95in /  1014.1hPa Calm   6mph /  9.7km/h 84% 0.00in /  0mm 125 W/m2
16:00 71 °F /  21.7 °C 65.9 °F /  18.8 °C 29.94in /  1013.8hPa Calm   6mph /  9.7km/h 84% 0.00in /  0mm 114 W/m2
16:09 70.7 °F /  21.5 °C 65.9 °F /  18.8 °C 29.94in /  1013.8hPa WSW 0.1mph /  0.2km/h 3mph /  4.8km/h 84.8% 0.00in /  0mm 148 W/m2
16:14 70.5 °F /  21.4 °C 65.7 °F /  18.7 °C 29.94in /  1013.8hPa Calm   3mph /  4.8km/h 85% 0.00in /  0mm 171 W/m2
16:19 70.4 °F /  21.3 °C 65.8 °F /  18.8 °C 29.94in /  1013.8hPa Calm   3mph /  4.8km/h 85.3% 0.00in /  0mm 165 W/m2
16:24 70.3 °F /  21.3 °C 65.9 °F /  18.8 °C 29.93in /  1013.4hPa WSW 0.1mph /  0.2km/h 3mph /  4.8km/h 86% 0.00in /  0mm 155 W/m2
16:29 70.2 °F /  21.2 °C 65.8 °F /  18.8 °C 29.93in /  1013.4hPa Calm   3mph /  4.8km/h 86% 0.00in /  0mm 178 W/m2
16:34 70.2 °F /  21.2 °C 65.9 °F /  18.8 °C 29.93in /  1013.4hPa Calm   3mph /  4.8km/h 86.3% 0.00in /  0mm 227 W/m2
16:39 70.3 °F /  21.3 °C 66.1 °F /  18.9 °C 29.93in /  1013.4hPa Calm     86.5% 0.00in /  0mm 199 W/m2
16:44 70.3 °F /  21.3 °C 65.9 °F /  18.8 °C 29.93in /  1013.4hPa Calm     86% 0.00in /  0mm 206 W/m2
16:49 70.4 °F /  21.3 °C 66.1 °F /  18.9 °C 29.93in /  1013.4hPa Calm     86.3% 0.00in /  0mm 132 W/m2
16:54 70.3 °F /  21.3 °C 65.9 °F /  18.8 °C 29.93in /  1013.4hPa WSW 0.1mph /  0.2km/h 4mph /  6.4km/h 86% 0.00in /  0mm 132 W/m2
16:59 70.2 °F /  21.2 °C 65.8 °F /  18.8 °C 29.92in /  1013.1hPa WSW 0.1mph /  0.2km/h 4mph /  6.4km/h 86% 0.00in /  0mm 188 W/m2
17:04 70.1 °F /  21.2 °C 65.7 °F /  18.7 °C 29.93in /  1013.4hPa SW 0.5mph /  0.8km/h 5mph /  8km/h 86% 0.00in /  0mm 188 W/m2
17:09 70.1 °F /  21.2 °C 65.7 °F /  18.7 °C 29.93in /  1013.4hPa Calm   5mph /  8km/h 86% 0.00in /  0mm 123 W/m2
17:14 70.1 °F /  21.2 °C 65.8 °F /  18.8 °C 29.92in /  1013.1hPa Calm   5mph /  8km/h 86.2% 0.00in /  0mm 125 W/m2
17:19 70.1 °F /  21.2 °C 65.8 °F /  18.8 °C 29.92in /  1013.1hPa Calm   5mph /  8km/h 86.4% 0.00in /  0mm 185 W/m2
17:24 70.2 °F /  21.2 °C 66.1 °F /  18.9 °C 29.92in /  1013.1hPa Calm   5mph /  8km/h 87% 0.00in /  0mm 169 W/m2
17:29 70.3 °F /  21.3 °C 66.2 °F /  19 °C 29.92in /  1013.1hPa Calm   5mph /  8km/h 87% 0.00in /  0mm 121 W/m2
17:34 70.3 °F /  21.3 °C 66.1 °F /  18.9 °C 29.92in /  1013.1hPa Calm   5mph /  8km/h 86.4% 0.00in /  0mm 93 W/m2
17:39 70.2 °F /  21.2 °C 65.8 °F /  18.8 °C 29.92in /  1013.1hPa Calm     86% 0.00in /  0mm 83 W/m2
17:44 70.1 °F /  21.2 °C 65.7 °F /  18.7 °C 29.92in /  1013.1hPa Calm     86% 0.00in /  0mm 65 W/m2
17:49 70 °F /  21.1 °C 65.7 °F /  18.7 °C 29.92in /  1013.1hPa Calm   2mph /  3.2km/h 86.2% 0.00in /  0mm 76 W/m2
17:54 69.9 °F /  21.1 °C 65.8 °F /  18.8 °C 29.92in /  1013.1hPa Calm   2mph /  3.2km/h 86.9% 0.00in /  0mm 81 W/m2
17:59 69.8 °F /  21 °C 65.8 °F /  18.8 °C 29.92in /  1013.1hPa Calm   2mph /  3.2km/h 87% 0.00in /  0mm 74 W/m2
18:04 69.8 °F /  21 °C 65.7 °F /  18.7 °C 29.92in /  1013.1hPa Calm   2mph /  3.2km/h 87% 0.00in /  0mm 70 W/m2
18:09 69.7 °F /  20.9 °C 65.7 °F /  18.7 °C 29.92in /  1013.1hPa Calm     87.1% 0.00in /  0mm 69 W/m2
18:14 69.6 °F /  20.9 °C 65.9 °F /  18.8 °C 29.92in /  1013.1hPa SW 0.1mph /  0.2km/h 2mph /  3.2km/h 88% 0.00in /  0mm 49 W/m2
18:19 69.6 °F /  20.9 °C 65.9 °F /  18.8 °C 29.92in /  1013.1hPa Calm   2mph /  3.2km/h 88% 0.00in /  0mm 42 W/m2
18:24 69.6 °F /  20.9 °C 65.9 °F /  18.8 °C 29.92in /  1013.1hPa South 0.1mph /  0.2km/h 3mph /  4.8km/h 88% 0.00in /  0mm 46 W/m2
18:29 69.5 °F /  20.8 °C 65.8 °F /  18.8 °C 29.91in /  1012.8hPa Calm   3mph /  4.8km/h 88% 0.00in /  0mm 40 W/m2
18:34 69.5 °F /  20.8 °C 65.8 °F /  18.8 °C 29.91in /  1012.8hPa Calm   3mph /  4.8km/h 88% 0.00in /  0mm 42 W/m2
18:39 69.5 °F /  20.8 °C 65.8 °F /  18.8 °C 29.91in /  1012.8hPa South 0.3mph /  0.5km/h 5mph /  8km/h 88% 0.00in /  0mm 72 W/m2
18:44 69.5 °F /  20.8 °C 65.8 °F /  18.8 °C 29.92in /  1013.1hPa Calm   5mph /  8km/h 88% 0.00in /  0mm 72 W/m2
18:49 69.5 °F /  20.8 °C 65.8 °F /  18.8 °C 29.92in /  1013.1hPa Calm   5mph /  8km/h 88% 0.00in /  0mm 58 W/m2
18:54 69.6 °F /  20.9 °C 65.9 °F /  18.8 °C 29.92in /  1013.1hPa Calm   5mph /  8km/h 88% 0.00in /  0mm 65 W/m2
18:59 69.6 °F /  20.9 °C 65.9 °F /  18.8 °C 29.91in /  1012.8hPa Calm   5mph /  8km/h 88% 0.00in /  0mm 67 W/m2
19:04 69.7 °F /  20.9 °C 66 °F /  18.9 °C 29.91in /  1012.8hPa South 0.1mph /  0.2km/h 5mph /  8km/h 88% 0.00in /  0mm 63 W/m2
19:09 69.7 °F /  20.9 °C 66 °F /  18.9 °C 29.91in /  1012.8hPa Calm   1mph /  1.6km/h 88% 0.00in /  0mm 51 W/m2
19:14 69.7 °F /  20.9 °C 65.9 °F /  18.8 °C 29.92in /  1013.1hPa Calm   1mph /  1.6km/h 88% 0.00in /  0mm 46 W/m2
19:15 69.6 °F /  20.9 °C 65.9 °F /  18.8 °C 29.91in /  1012.8hPa Calm   1mph /  1.6km/h 88% 0.00in /  0mm 39 W/m2
19:30 69.5 °F /  20.8 °C 65.8 °F /  18.8 °C 29.92in /  1013.1hPa Calm   3mph /  4.8km/h 88% 0.00in /  0mm 37 W/m2
20:04 68.9 °F /  20.5 °C 65.7 °F /  18.7 °C 29.92in /  1013.1hPa Calm   3mph /  4.8km/h 89.7% 0.00in /  0mm 37 W/m2
20:09 68.7 °F /  20.4 °C 65.7 °F /  18.7 °C 29.92in /  1013.1hPa Calm     90% 0.00in /  0mm 0 W/m2
20:14 68.6 °F /  20.3 °C 65.6 °F /  18.7 °C 29.92in /  1013.1hPa SSW 0.1mph /  0.2km/h 3mph /  4.8km/h 90% 0.00in /  0mm 0 W/m2
20:19 68.5 °F /  20.3 °C 65.5 °F /  18.6 °C 29.92in /  1013.1hPa SSW 0.3mph /  0.5km/h 3mph /  4.8km/h 90% 0.00in /  0mm 0 W/m2
20:24 68.5 °F /  20.3 °C 65.4 °F /  18.6 °C 29.92in /  1013.1hPa SSW 0.1mph /  0.2km/h 3mph /  4.8km/h 90% 0.00in /  0mm 0 W/m2
20:29 68.4 °F /  20.2 °C 65.4 °F /  18.6 °C 29.92in /  1013.1hPa SSW 0.2mph /  0.3km/h 3mph /  4.8km/h 90.4% 0.00in /  0mm 0 W/m2
20:34 68.3 °F /  20.2 °C 65.4 °F /  18.6 °C 29.92in /  1013.1hPa SSW 0.1mph /  0.2km/h 3mph /  4.8km/h 90.4% 0.00in /  0mm 0 W/m2
20:39 68.2 °F /  20.1 °C 65.5 °F /  18.6 °C 29.92in /  1013.1hPa Calm   2mph /  3.2km/h 91% 0.00in /  0mm 0 W/m2
20:44 68.2 °F /  20.1 °C 65.5 °F /  18.6 °C 29.92in /  1013.1hPa SW 0.3mph /  0.5km/h 6mph /  9.7km/h 91% 0.00in /  0mm 0 W/m2
20:49 68.2 °F /  20.1 °C 65.5 °F /  18.6 °C 29.92in /  1013.1hPa Calm   6mph /  9.7km/h 91% 0.00in /  0mm 0 W/m2
20:54 68.2 °F /  20.1 °C 65.5 °F /  18.6 °C 29.92in /  1013.1hPa Calm   6mph /  9.7km/h 91% 0.00in /  0mm 0 W/m2
20:59 68.2 °F /  20.1 °C 65.5 °F /  18.6 °C 29.92in /  1013.1hPa Calm   6mph /  9.7km/h 91% 0.00in /  0mm 0 W/m2
21:04 68.2 °F /  20.1 °C 65.5 °F /  18.6 °C 29.92in /  1013.1hPa Calm   6mph /  9.7km/h 91% 0.00in /  0mm 0 W/m2
21:09 68.2 °F /  20.1 °C 65.5 °F /  18.6 °C 29.93in /  1013.4hPa Calm   2mph /  3.2km/h 91% 0.00in /  0mm 0 W/m2
21:14 68.1 °F /  20.1 °C 65.4 °F /  18.6 °C 29.93in /  1013.4hPa Calm   2mph /  3.2km/h 91% 0.00in /  0mm 0 W/m2
21:19 68.1 °F /  20.1 °C 65.4 °F /  18.6 °C 29.93in /  1013.4hPa Calm   2mph /  3.2km/h 91% 0.00in /  0mm 0 W/m2
21:24 68.1 °F /  20.1 °C 65.4 °F /  18.6 °C 29.93in /  1013.4hPa SW 0.2mph /  0.3km/h 4mph /  6.4km/h 91% 0.00in /  0mm 0 W/m2
21:29 68.1 °F /  20.1 °C 65.4 °F /  18.6 °C 29.93in /  1013.4hPa Calm   4mph /  6.4km/h 91% 0.00in /  0mm 0 W/m2
21:34 68 °F /  20 °C 65.3 °F /  18.5 °C 29.93in /  1013.4hPa Calm   4mph /  6.4km/h 91% 0.00in /  0mm 0 W/m2
21:39 67.9 °F /  19.9 °C 65.4 °F /  18.6 °C 29.92in /  1013.1hPa Calm     91.5% 0.00in /  0mm 0 W/m2
21:44 67.9 °F /  19.9 °C 65.5 °F /  18.6 °C 29.92in /  1013.1hPa Calm     92% 0.00in /  0mm 0 W/m2
21:49 67.8 °F /  19.9 °C 65.4 °F /  18.6 °C 29.92in /  1013.1hPa Calm     92% 0.00in /  0mm 0 W/m2
21:54 67.8 °F /  19.9 °C 65.4 °F /  18.6 °C 29.92in /  1013.1hPa Calm     92% 0.00in /  0mm 0 W/m2
21:59 67.7 °F /  19.8 °C 65.3 °F /  18.5 °C 29.92in /  1013.1hPa Calm     92% 0.00in /  0mm 0 W/m2
22:04 67.7 °F /  19.8 °C 65.3 °F /  18.5 °C 29.92in /  1013.1hPa Calm     92% 0.00in /  0mm 0 W/m2
22:09 67.6 °F /  19.8 °C 65.2 °F /  18.4 °C 29.92in /  1013.1hPa Calm     92% 0.00in /  0mm 0 W/m2
22:14 67.6 °F /  19.8 °C 65.2 °F /  18.4 °C 29.92in /  1013.1hPa Calm     92% 0.00in /  0mm 0 W/m2
22:19 67.5 °F /  19.7 °C 65.1 °F /  18.4 °C 29.92in /  1013.1hPa Calm     92% 0.00in /  0mm 0 W/m2
22:24 67.5 °F /  19.7 °C 65.1 °F /  18.4 °C 29.92in /  1013.1hPa Calm     92% 0.00in /  0mm 0 W/m2
22:29 67.4 °F /  19.7 °C 65 °F /  18.3 °C 29.92in /  1013.1hPa Calm     92% 0.00in /  0mm 0 W/m2
22:34 67.2 °F /  19.6 °C 64.9 °F /  18.3 °C 29.91in /  1012.8hPa Calm     92.3% 0.00in /  0mm 0 W/m2
22:39 67.1 °F /  19.5 °C 65 °F /  18.3 °C 29.91in /  1012.8hPa Calm     93% 0.00in /  0mm 0 W/m2
22:44 67 °F /  19.4 °C 64.9 °F /  18.3 °C 29.91in /  1012.8hPa Calm   1mph /  1.6km/h 93% 0.00in /  0mm 0 W/m2
22:49 67 °F /  19.4 °C 64.9 °F /  18.3 °C 29.91in /  1012.8hPa Calm   1mph /  1.6km/h 93% 0.00in /  0mm 0 W/m2
22:54 66.9 °F /  19.4 °C 64.8 °F /  18.2 °C 29.90in /  1012.4hPa Calm   1mph /  1.6km/h 93% 0.00in /  0mm 0 W/m2
22:59 66.8 °F /  19.3 °C 64.7 °F /  18.2 °C 29.90in /  1012.4hPa Calm   1mph /  1.6km/h 93% 0.00in /  0mm 0 W/m2
23:04 66.8 °F /  19.3 °C 64.7 °F /  18.2 °C 29.90in /  1012.4hPa Calm   1mph /  1.6km/h 93% 0.00in /  0mm 0 W/m2
23:09 66.7 °F /  19.3 °C 64.8 °F /  18.2 °C 29.90in /  1012.4hPa Calm     93.4% 0.00in /  0mm 0 W/m2
23:14 66.7 °F /  19.3 °C 64.9 °F /  18.3 °C 29.89in /  1012.1hPa Calm     94% 0.00in /  0mm 0 W/m2
23:19 66.6 °F /  19.2 °C 64.8 °F /  18.2 °C 29.90in /  1012.4hPa Calm     94% 0.00in /  0mm 0 W/m2
23:24 66.6 °F /  19.2 °C 64.8 °F /  18.2 °C 29.89in /  1012.1hPa Calm     94% 0.00in /  0mm 0 W/m2
23:29 66.6 °F /  19.2 °C 64.8 °F /  18.2 °C 29.89in /  1012.1hPa Calm     94% 0.00in /  0mm 0 W/m2
23:34 66.5 °F /  19.2 °C 64.7 °F /  18.2 °C 29.89in /  1012.1hPa SW 0.1mph /  0.2km/h 3mph /  4.8km/h 94% 0.00in /  0mm 0 W/m2
23:39 66.5 °F /  19.2 °C 64.7 °F /  18.2 °C 29.89in /  1012.1hPa Calm   3mph /  4.8km/h 94% 0.00in /  0mm 0 W/m2
23:44 66.5 °F /  19.2 °C 64.7 °F /  18.2 °C 29.88in /  1011.7hPa Calm   3mph /  4.8km/h 94% 0.00in /  0mm 0 W/m2
23:49 66.4 °F /  19.1 °C 64.6 °F /  18.1 °C 29.88in /  1011.7hPa Calm   3mph /  4.8km/h 94% 0.00in /  0mm 0 W/m2
23:54 66.4 °F /  19.1 °C 64.6 °F /  18.1 °C 29.88in /  1011.7hPa Calm   3mph /  4.8km/h 94% 0.00in /  0mm 0 W/m2
23:59 66.4 °F /  19.1 °C 64.6 °F /  18.1 °C 29.88in /  1011.7hPa Calm   3mph /  4.8km/h 94% 0.00in /  0mm 0 W/m2
Hartford County Weather
Compliments of Weather Underground - 2 mb